sensor_id;sensor_type;location;lat;lon;timestamp;P1;durP1;ratioP1;P2;durP2;ratioP2
18298;SDS011;9275;48.690;9.686;2023-12-28T19:23:47;8.33;;;4.80;;
18298;SDS011;9275;48.690;9.686;2023-12-28T19:26:12;15.70;;;5.07;;
18298;SDS011;9275;48.690;9.686;2023-12-28T19:28:38;8.27;;;4.67;;
18298;SDS011;9275;48.690;9.686;2023-12-28T19:31:02;10.53;;;4.53;;
18298;SDS011;9275;48.690;9.686;2023-12-28T19:33:27;932.70;;;705.37;;
18298;SDS011;9275;48.690;9.686;2023-12-28T19:35:52;585.43;;;455.13;;
18298;SDS011;9275;48.690;9.686;2023-12-28T19:38:16;589.33;;;459.77;;
18298;SDS011;9275;48.690;9.686;2023-12-28T19:40:42;410.20;;;305.57;;
18298;SDS011;9275;48.690;9.686;2023-12-28T19:43:07;304.23;;;220.73;;
18298;SDS011;9275;48.690;9.686;2023-12-28T19:45:31;270.23;;;183.63;;
18298;SDS011;9275;48.690;9.686;2023-12-28T19:47:56;149.10;;;98.73;;
18298;SDS011;9275;48.690;9.686;2023-12-28T19:50:21;149.60;;;98.10;;
18298;SDS011;9275;48.690;9.686;2023-12-28T19:52:45;115.70;;;77.10;;
18298;SDS011;9275;48.690;9.686;2023-12-28T19:55:10;60.70;;;39.33;;
18298;SDS011;9275;48.690;9.686;2023-12-28T19:57:35;39.57;;;26.53;;
18298;SDS011;9275;48.690;9.686;2023-12-28T20:00:00;27.63;;;19.60;;
18298;SDS011;9275;48.690;9.686;2023-12-28T20:02:25;23.03;;;14.90;;
18298;SDS011;9275;48.690;9.686;2023-12-28T20:04:53;15.10;;;10.77;;
18298;SDS011;9275;48.690;9.686;2023-12-28T20:07:18;18.47;;;11.20;;
18298;SDS011;9275;48.690;9.686;2023-12-28T20:09:43;15.87;;;9.83;;
18298;SDS011;9275;48.690;9.686;2023-12-28T20:12:07;7.80;;;5.23;;
18298;SDS011;9275;48.690;9.686;2023-12-28T20:14:33;8.73;;;4.93;;
18298;SDS011;9275;48.690;9.686;2023-12-28T20:16:57;7.93;;;5.03;;
18298;SDS011;9275;48.690;9.686;2023-12-28T20:19:22;6.37;;;4.73;;
18298;SDS011;9275;48.690;9.686;2023-12-28T20:21:47;6.13;;;4.23;;
18298;SDS011;9275;48.690;9.686;2023-12-28T20:24:12;3.77;;;2.93;;
18298;SDS011;9275;48.690;9.686;2023-12-28T20:26:37;3.80;;;2.63;;
18298;SDS011;9275;48.690;9.686;2023-12-28T20:29:01;3.33;;;2.23;;
18298;SDS011;9275;48.690;9.686;2023-12-28T20:31:27;2.83;;;1.60;;
18298;SDS011;9275;48.690;9.686;2023-12-28T20:33:54;2.17;;;1.20;;
18298;SDS011;9275;48.690;9.686;2023-12-28T20:36:18;1.90;;;1.20;;
18298;SDS011;9275;48.690;9.686;2023-12-28T20:38:43;1.30;;;1.13;;
18298;SDS011;9275;48.690;9.686;2023-12-28T20:41:07;1.60;;;1.10;;
18298;SDS011;9275;48.690;9.686;2023-12-28T20:43:39;1.10;;;1.00;;
18298;SDS011;9275;48.690;9.686;2023-12-28T20:46:03;2.23;;;1.20;;
18298;SDS011;9275;48.690;9.686;2023-12-28T20:48:30;1.90;;;1.70;;
18298;SDS011;9275;48.690;9.686;2023-12-28T20:50:54;2.00;;;1.27;;
18298;SDS011;9275;48.690;9.686;2023-12-28T20:53:19;1.73;;;0.97;;
18298;SDS011;9275;48.690;9.686;2023-12-28T20:55:43;2.30;;;1.07;;
18298;SDS011;9275;48.690;9.686;2023-12-28T20:58:07;2.87;;;1.40;;
18298;SDS011;9275;48.690;9.686;2023-12-28T21:00:32;1.30;;;1.10;;
18298;SDS011;9275;48.690;9.686;2023-12-28T21:02:58;3.50;;;2.20;;
18298;SDS011;9275;48.690;9.686;2023-12-28T21:05:23;3.37;;;1.90;;
18298;SDS011;9275;48.690;9.686;2023-12-28T21:07:48;2.50;;;1.60;;
18298;SDS011;9275;48.690;9.686;2023-12-28T21:10:12;3.03;;;1.90;;
18298;SDS011;9275;48.690;9.686;2023-12-28T21:12:37;2.50;;;1.40;;
18298;SDS011;9275;48.690;9.686;2023-12-28T21:15:02;1.80;;;1.17;;
18298;SDS011;9275;48.690;9.686;2023-12-28T21:17:28;1.57;;;1.30;;
18298;SDS011;9275;48.690;9.686;2023-12-28T21:19:52;1.80;;;1.40;;
18298;SDS011;9275;48.690;9.686;2023-12-28T21:22:19;1.40;;;1.00;;
18298;SDS011;9275;48.690;9.686;2023-12-28T21:24:44;1.57;;;1.20;;
18298;SDS011;9275;48.690;9.686;2023-12-28T21:27:08;2.47;;;1.00;;
18298;SDS011;9275;48.690;9.686;2023-12-28T21:29:33;1.20;;;0.90;;
18298;SDS011;9275;48.690;9.686;2023-12-28T21:31:58;2.50;;;1.00;;
18298;SDS011;9275;48.690;9.686;2023-12-28T21:34:23;2.43;;;0.90;;
18298;SDS011;9275;48.690;9.686;2023-12-28T21:36:48;2.90;;;1.00;;
18298;SDS011;9275;48.690;9.686;2023-12-28T21:39:15;2.90;;;1.40;;
18298;SDS011;9275;48.690;9.686;2023-12-28T21:41:40;16.93;;;6.87;;
18298;SDS011;9275;48.690;9.686;2023-12-28T21:44:05;4.50;;;2.27;;
18298;SDS011;9275;48.690;9.686;2023-12-28T21:46:29;6.23;;;2.90;;
18298;SDS011;9275;48.690;9.686;2023-12-28T21:48:54;12.77;;;4.87;;
18298;SDS011;9275;48.690;9.686;2023-12-28T21:51:18;6.53;;;3.00;;
18298;SDS011;9275;48.690;9.686;2023-12-28T21:53:43;6.03;;;3.00;;
18298;SDS011;9275;48.690;9.686;2023-12-28T21:56:09;5.60;;;2.93;;
18298;SDS011;9275;48.690;9.686;2023-12-28T21:58:34;5.27;;;3.00;;
18298;SDS011;9275;48.690;9.686;2023-12-28T22:00:59;5.17;;;2.80;;
18298;SDS011;9275;48.690;9.686;2023-12-28T22:03:24;5.70;;;3.00;;
18298;SDS011;9275;48.690;9.686;2023-12-28T22:05:49;4.43;;;2.43;;
18298;SDS011;9275;48.690;9.686;2023-12-28T22:08:14;5.80;;;2.80;;
18298;SDS011;9275;48.690;9.686;2023-12-28T22:10:39;6.80;;;2.63;;
18298;SDS011;9275;48.690;9.686;2023-12-28T22:13:06;5.13;;;2.27;;
18298;SDS011;9275;48.690;9.686;2023-12-28T22:15:31;4.60;;;2.40;;
18298;SDS011;9275;48.690;9.686;2023-12-28T22:17:55;3.87;;;2.10;;
18298;SDS011;9275;48.690;9.686;2023-12-28T22:20:20;3.23;;;1.80;;
18298;SDS011;9275;48.690;9.686;2023-12-28T22:22:45;3.57;;;1.93;;
18298;SDS011;9275;48.690;9.686;2023-12-28T22:25:09;2.77;;;1.90;;
18298;SDS011;9275;48.690;9.686;2023-12-28T22:27:34;4.03;;;2.00;;
18298;SDS011;9275;48.690;9.686;2023-12-28T22:30:00;4.13;;;1.70;;
18298;SDS011;9275;48.690;9.686;2023-12-28T22:32:25;3.17;;;1.80;;
18298;SDS011;9275;48.690;9.686;2023-12-28T22:34:50;3.03;;;1.50;;
18298;SDS011;9275;48.690;9.686;2023-12-28T22:37:14;2.80;;;1.80;;
18298;SDS011;9275;48.690;9.686;2023-12-28T22:39:38;2.50;;;1.60;;
18298;SDS011;9275;48.690;9.686;2023-12-28T22:42:05;3.50;;;1.80;;
18298;SDS011;9275;48.690;9.686;2023-12-28T22:44:33;2.30;;;1.40;;
18298;SDS011;9275;48.690;9.686;2023-12-28T22:46:59;2.47;;;1.67;;
18298;SDS011;9275;48.690;9.686;2023-12-28T22:49:23;2.33;;;1.50;;
18298;SDS011;9275;48.690;9.686;2023-12-28T22:51:48;2.77;;;1.60;;
18298;SDS011;9275;48.690;9.686;2023-12-28T22:54:12;4.13;;;1.83;;
18298;SDS011;9275;48.690;9.686;2023-12-28T22:56:37;3.60;;;1.87;;
18298;SDS011;9275;48.690;9.686;2023-12-28T22:59:01;2.13;;;1.60;;
18298;SDS011;9275;48.690;9.686;2023-12-28T23:01:26;3.03;;;1.80;;
18298;SDS011;9275;48.690;9.686;2023-12-28T23:03:52;3.80;;;2.20;;
18298;SDS011;9275;48.690;9.686;2023-12-28T23:06:16;1.93;;;1.47;;
18298;SDS011;9275;48.690;9.686;2023-12-28T23:08:41;2.63;;;1.53;;
18298;SDS011;9275;48.690;9.686;2023-12-28T23:11:05;1.90;;;1.50;;
18298;SDS011;9275;48.690;9.686;2023-12-28T23:13:30;2.50;;;1.43;;
18298;SDS011;9275;48.690;9.686;2023-12-28T23:15:54;2.00;;;1.60;;
18298;SDS011;9275;48.690;9.686;2023-12-28T23:18:19;2.97;;;1.60;;
18298;SDS011;9275;48.690;9.686;2023-12-28T23:20:45;2.00;;;1.70;;
18298;SDS011;9275;48.690;9.686;2023-12-28T23:23:09;2.47;;;1.30;;
18298;SDS011;9275;48.690;9.686;2023-12-28T23:25:35;1.33;;;1.17;;
18298;SDS011;9275;48.690;9.686;2023-12-28T23:27:58;3.53;;;1.57;;
18298;SDS011;9275;48.690;9.686;2023-12-28T23:30:23;1.50;;;1.20;;
18298;SDS011;9275;48.690;9.686;2023-12-28T23:32:47;1.50;;;1.40;;
18298;SDS011;9275;48.690;9.686;2023-12-28T23:35:11;2.77;;;1.90;;
18298;SDS011;9275;48.690;9.686;2023-12-28T23:37:37;1.57;;;1.30;;
18298;SDS011;9275;48.690;9.686;2023-12-28T23:40:01;4.07;;;1.60;;
18298;SDS011;9275;48.690;9.686;2023-12-28T23:42:26;4.03;;;1.73;;
18298;SDS011;9275;48.690;9.686;2023-12-28T23:44:50;2.70;;;1.73;;
18298;SDS011;9275;48.690;9.686;2023-12-28T23:47:15;5.07;;;1.60;;
18298;SDS011;9275;48.690;9.686;2023-12-28T23:49:40;2.40;;;1.50;;
18298;SDS011;9275;48.690;9.686;2023-12-28T23:52:05;2.03;;;1.40;;
18298;SDS011;9275;48.690;9.686;2023-12-28T23:54:31;2.60;;;1.63;;
18298;SDS011;9275;48.690;9.686;2023-12-28T23:56:58;1.73;;;1.47;;
18298;SDS011;9275;48.690;9.686;2023-12-28T23:59:25;1.97;;;1.17;;
